Time;durP1;ratioP1;P1;durP2;ratioP2;P2;SDS_P1;SDS_P2;PMS_P1;PMS_P2;Temp;Humidity;BMP_temperature;BMP_pressure;BME280_temperature;BME280_humidity;BME280_pressure;Samples;Min_cycle;Max_cycle;Signal;HPM_P1;HPM_P2
2021/07/27 00:02:00;;;;;;;;;17.50;16.00;;;;;23.39;55.45;100727.31;5038544;28;45545;-58
2021/07/27 00:04:25;;;;;;;;;16.75;15.50;;;;;23.40;55.44;100728.19;5070039;28;48359;-58
2021/07/27 00:06:50;;;;;;;;;16.50;15.25;;;;;23.40;55.55;100725.47;5078417;27;45413;-58
2021/07/27 00:09:16;;;;;;;;;16.25;15.75;;;;;23.39;55.46;100729.19;5078920;28;45645;-58
2021/07/27 00:11:41;;;;;;;;;15.50;15.50;;;;;23.39;55.03;100729.19;5061026;28;45817;-58
2021/07/27 00:14:07;;;;;;;;;15.33;14.33;;;;;23.38;55.13;100722.91;5078737;28;48551;-59
2021/07/27 00:16:32;;;;;;;;;14.50;14.50;;;;;23.37;55.19;100722.97;5078707;27;45335;-59
2021/07/27 00:18:58;;;;;;;;;14.50;13.50;;;;;23.37;55.18;100720.28;5079236;28;45357;-59
2021/07/27 00:21:24;;;;;;;;;13.50;13.50;;;;;23.37;55.01;100728.41;5079629;27;45958;-59
2021/07/27 00:23:49;;;;;;;;;17.25;17.25;;;;;23.36;54.92;100729.38;5078900;28;47396;-58
2021/07/27 00:26:15;;;;;;;;;14.25;14.00;;;;;23.35;54.96;100722.25;5078810;27;45291;-58
2021/07/27 00:28:42;;;;;;;;;14.00;14.00;;;;;23.35;55.05;100722.25;5060550;28;45473;-58
2021/07/27 00:31:16;;;;;;;;;17.75;17.00;;;;;23.35;54.98;100719.53;5079132;27;45415;-58
2021/07/27 00:33:42;;;;;;;;;18.25;16.50;;;;;23.33;54.90;100719.66;5043793;27;47289;-59
2021/07/27 00:36:09;;;;;;;;;21.50;18.75;;;;;23.32;54.78;100706.22;5056917;28;45831;-59
2021/07/27 00:38:34;;;;;;;;;15.50;15.50;;;;;23.31;54.88;100718.03;5059245;27;45381;-58
2021/07/27 00:40:59;;;;;;;;;16.25;16.00;;;;;23.31;55.19;100709.91;5078553;27;45543;-58
2021/07/27 00:43:25;;;;;;;;;15.25;13.50;;;;;23.31;55.06;100716.19;5078309;27;47162;-59
2021/07/27 00:45:51;;;;;;;;;12.50;12.50;;;;;23.30;54.49;100714.47;5057994;28;45807;-59
2021/07/27 00:48:16;;;;;;;;;13.25;13.25;;;;;23.30;54.33;100708.19;5063924;28;45620;-59
2021/07/27 00:50:42;;;;;;;;;12.25;12.25;;;;;23.29;54.57;100714.59;5081851;27;45766;-58
2021/07/27 00:53:07;;;;;;;;;17.50;17.50;;;;;23.28;54.73;100705.59;5081657;27;45779;-59
2021/07/27 00:55:34;;;;;;;;;16.00;15.00;;;;;23.27;54.67;100698.47;5081875;27;45497;-59
2021/07/27 00:58:00;;;;;;;;;15.00;14.25;;;;;23.28;54.96;100700.19;5081863;27;45502;-59
2021/07/27 01:00:26;;;;;;;;;13.75;13.00;;;;;23.27;54.67;100701.16;5081063;27;45651;-59
2021/07/27 01:02:52;;;;;;;;;16.25;14.50;;;;;23.29;54.87;100706.47;5054975;28;48861;-59
2021/07/27 01:05:19;;;;;;;;;13.00;13.00;;;;;23.28;54.30;100699.31;5081224;27;45832;-59
2021/07/27 01:07:45;;;;;;;;;15.33;15.00;;;;;23.27;54.17;100703.00;5081744;27;45349;-59
2021/07/27 01:10:13;;;;;;;;;38.75;34.75;;;;;23.26;54.47;100709.41;5063406;28;45651;-59
2021/07/27 01:12:40;;;;;;;;;17.75;15.25;;;;;23.25;54.33;100710.34;5062656;28;45415;-58
2021/07/27 01:15:07;;;;;;;;;14.75;12.50;;;;;23.24;54.70;100709.50;5081082;27;45547;-59
2021/07/27 01:17:33;;;;;;;;;27.50;23.50;;;;;23.24;54.35;100708.63;5063052;27;45413;-59
2021/07/27 01:43:50;;;;;;;;;15.75;15.50;;;;;23.19;54.62;100695.44;5080474;27;47172;-59
2021/07/27 01:46:18;;;;;;;;;14.50;13.00;;;;;23.18;54.81;100688.31;5076436;27;45887;-59
2021/07/27 01:48:44;;;;;;;;;11.25;11.00;;;;;23.18;54.77;100696.44;5062448;27;45615;-59
2021/07/27 01:51:10;;;;;;;;;15.25;13.50;;;;;23.15;54.98;100692.13;5080989;27;45593;-59
2021/07/27 01:56:16;;;;;;;;;14.25;14.25;;;;;23.13;55.17;100694.06;5080176;27;45328;-59
2021/07/27 01:58:42;;;;;;;;;14.25;14.25;;;;;23.12;55.22;100691.47;5080356;27;45370;-57
2021/07/27 02:01:08;;;;;;;;;19.00;15.25;;;;;23.11;54.91;100682.47;5073812;28;45580;-57
2021/07/27 02:03:34;;;;;;;;;18.00;15.50;;;;;23.11;54.61;100684.31;5078421;27;47255;-58
2021/07/27 02:05:59;;;;;;;;;16.50;15.25;;;;;23.10;54.77;100686.16;5080633;27;45332;-58
2021/07/27 02:08:25;;;;;;;;;15.50;12.75;;;;;23.12;54.85;100689.66;5062301;28;45624;-58
2021/07/27 02:10:59;;;;;;;;;16.25;16.25;;;;;23.13;55.33;100676.97;5062603;28;45425;-57
2021/07/27 02:13:29;;;;;;;;;11.75;11.00;;;;;23.14;54.81;100674.16;5080054;27;48317;-58
2021/07/27 02:15:55;;;;;;;;;11.50;11.50;;;;;23.16;55.52;100680.31;5058614;28;46038;-57
2021/07/27 02:18:23;;;;;;;;;15.75;13.75;;;;;23.17;55.15;100679.31;5080212;27;45392;-57
2021/07/27 02:20:49;;;;;;;;;15.00;15.00;;;;;23.17;54.98;100683.88;5062285;27;45263;-57
2021/07/27 02:23:15;;;;;;;;;17.00;14.75;;;;;23.16;55.30;100683.00;5058178;28;45548;-58
2021/07/27 02:25:41;;;;;;;;;15.75;14.00;;;;;23.17;55.14;100678.47;5074328;27;46033;-58
2021/07/27 02:28:11;;;;;;;;;12.75;12.75;;;;;23.18;54.78;100677.47;5080107;27;45643;-58
2021/07/27 02:30:40;;;;;;;;;13.25;11.25;;;;;23.16;55.52;100672.19;5061750;27;45368;-58
2021/07/27 02:33:06;;;;;;;;;13.75;12.00;;;;;23.17;55.45;100673.03;5061637;28;45508;-58
2021/07/27 02:35:34;;;;;;;;;17.25;15.00;;;;;23.17;55.24;100678.47;5079890;27;45659;-58
2021/07/27 02:38:00;;;;;;;;;14.25;14.25;;;;;23.15;55.35;100672.31;5061323;28;45472;-58
2021/07/27 02:40:26;;;;;;;;;14.75;14.75;;;;;23.13;54.97;100672.41;5073671;27;45594;-58
2021/07/27 02:42:51;;;;;;;;;13.50;13.50;;;;;23.12;55.00;100668.00;5079401;27;46763;-58
2021/07/27 02:45:20;;;;;;;;;13.00;12.00;;;;;23.10;55.20;100664.50;5075303;28;45275;-58
2021/07/27 02:47:46;;;;;;;;;12.00;10.25;;;;;23.10;55.22;100672.63;5058460;28;45402;-58
2021/07/27 02:50:12;;;;;;;;;12.75;12.75;;;;;23.09;55.16;100661.91;5074044;27;45865;-58
2021/07/27 02:52:44;;;;;;;;;15.75;14.75;;;;;23.07;55.15;100664.75;5061192;28;47823;-58
2021/07/27 02:55:11;;;;;;;;;14.50;13.75;;;;;23.07;55.11;100664.75;5079536;27;46459;-58
2021/07/27 02:57:36;;;;;;;;;14.00;13.25;;;;;;;;5079553;28;45382;-58
2021/07/27 03:00:03;;;;;;;;;16.75;15.75;;;;;23.07;55.41;100661.16;5079701;27;45588;-58
2021/07/27 03:02:36;;;;;;;;;15.25;14.75;;;;;23.07;55.44;100672.00;5069719;28;47846;-58
2021/07/27 03:05:02;;;;;;;;;14.25;14.25;;;;;23.05;55.10;100666.69;5079294;27;45334;-58
2021/07/27 03:10:17;;;;;;;;;15.75;14.25;;;;;23.04;55.56;100659.56;5078894;27;45278;-58
2021/07/27 03:12:54;;;;;;;;;14.25;12.75;;;;;23.04;55.52;100661.41;5060733;28;45452;-58
2021/07/27 03:15:20;;;;;;;;;16.75;16.75;;;;;23.05;55.61;100650.47;5079286;27;45393;-58
2021/07/27 03:17:46;;;;;;;;;13.00;12.25;;;;;23.06;55.64;100651.31;5079284;27;45314;-58
2021/07/27 03:20:15;;;;;;;;;11.75;11.00;;;;;23.06;55.46;100652.19;5079687;27;45364;-58
2021/07/27 03:22:41;;;;;;;;;16.00;16.00;;;;;;;;5060485;27;47317;-58
2021/07/27 03:25:07;;;;;;;;;14.50;13.50;;;;;23.10;55.61;100650.09;5079299;27;45435;-58
2021/07/27 03:27:32;;;;;;;;;15.00;13.25;;;;;23.10;55.67;100632.03;5059091;27;45480;-58
2021/07/27 03:29:58;;;;;;;;;12.25;12.25;;;;;23.09;55.30;100633.00;5057771;28;45279;-58
2021/07/27 03:32:23;;;;;;;;;14.75;14.50;;;;;23.09;55.51;100632.13;5074363;27;47033;-58
2021/07/27 03:34:49;;;;;;;;;14.00;14.00;;;;;23.08;55.72;100631.28;5079036;27;45359;-58
2021/07/27 03:37:15;;;;;;;;;14.25;13.50;;;;;23.09;55.44;100633.00;5078710;27;45342;-58
2021/07/27 03:39:40;;;;;;;;;12.75;12.75;;;;;23.07;55.75;100620.56;5067149;27;45702;-58
2021/07/27 03:42:08;;;;;;;;;15.50;15.25;;;;;23.07;55.74;100618.72;5060448;27;48104;-58
2021/07/27 03:44:34;;;;;;;;;13.00;13.00;;;;;23.09;55.90;100622.19;5078842;27;45353;-58
2021/07/27 03:47:02;;;;;;;;;13.50;13.00;;;;;23.07;55.85;100613.31;5072995;28;45536;-59
2021/07/27 03:49:29;;;;;;;;;13.50;13.50;;;;;23.06;55.89;100608.88;5067162;28;45369;-58
2021/07/27 03:51:59;;;;;;;;;15.75;14.25;;;;;23.06;55.65;100610.72;5078236;27;47144;-58
2021/07/27 03:54:32;;;;;;;;;19.25;18.00;;;;;23.05;55.92;100612.56;5078494;28;46208;-58
2021/07/27 03:56:58;;;;;;;;;15.75;15.00;;;;;23.03;55.67;100619.94;5060106;28;45394;-58
2021/07/27 03:59:24;;;;;;;;;14.50;13.00;;;;;23.00;55.46;100620.19;5078623;28;45401;-58
2021/07/27 04:01:50;;;;;;;;;15.00;15.00;;;;;22.99;56.18;100609.44;5069384;27;48181;-58
2021/07/27 04:04:18;;;;;;;;;16.00;14.67;;;;;22.99;55.91;100614.84;5060372;28;45390;-58
2021/07/27 04:06:47;;;;;;;;;16.00;16.00;;;;;22.98;55.96;100616.69;5076982;27;45243;-58
2021/07/27 04:09:12;;;;;;;;;16.67;15.33;;;;;22.98;56.06;100614.00;5078671;27;45515;-58
2021/07/27 04:11:38;;;;;;;;;15.33;14.33;;;;;22.99;55.92;100614.84;5078115;27;48420;-58
2021/07/27 04:14:03;;;;;;;;;14.00;13.67;;;;;22.97;55.88;100606.84;5077941;28;45421;-58
2021/07/27 04:16:29;;;;;;;;;17.00;15.00;;;;;22.97;56.08;100604.16;5078577;27;45490;-58
2021/07/27 04:18:55;;;;;;;;;15.25;14.25;;;;;22.96;56.34;100609.69;5078455;27;45405;-58
2021/07/27 04:21:20;;;;;;;;;15.00;14.25;;;;;22.95;55.95;100608.81;5081143;27;47088;-58
2021/07/27 04:23:46;;;;;;;;;13.00;12.33;;;;;22.96;56.13;100615.09;5081911;27;46093;-58
2021/07/27 04:26:11;;;;;;;;;18.75;18.25;;;;;22.94;56.23;100612.50;5063955;28;45332;-58
2021/07/27 04:28:37;;;;;;;;;14.00;13.00;;;;;22.94;56.08;100619.75;5081891;27;45422;-58
2021/07/27 04:31:02;;;;;;;;;14.75;13.75;;;;;22.93;56.01;100624.31;5081550;27;47104;-58
2021/07/27 04:33:27;;;;;;;;;15.67;15.00;;;;;22.94;56.01;100630.59;5063921;28;45361;-58
2021/07/27 04:35:53;;;;;;;;;15.33;15.33;;;;;22.93;56.02;100628.88;5082232;27;46502;-58
2021/07/27 04:38:22;;;;;;;;;15.00;15.00;;;;;22.94;56.33;100636.00;5064071;28;45512;-58
2021/07/27 04:40:51;;;;;;;;;15.33;12.33;;;;;22.93;56.04;100632.44;5082533;27;47647;-58
2021/07/27 04:43:16;;;;;;;;;15.00;15.00;;;;;22.94;55.84;100626.03;5081692;27;45456;-59
2021/07/27 04:45:42;;;;;;;;;15.00;14.33;;;;;22.94;56.16;100630.59;5077007;27;45419;-59
2021/07/27 04:48:07;;;;;;;;;14.00;14.00;;;;;22.95;55.92;100624.19;5080742;27;45333;-58
2021/07/27 04:50:33;;;;;;;;;20.00;18.00;;;;;22.96;56.51;100610.53;5081166;27;47520;-58
2021/07/27 04:53:05;;;;;;;;;16.00;14.67;;;;;22.97;56.34;100598.72;5063004;28;45297;-58
2021/07/27 04:55:31;;;;;;;;;12.00;12.00;;;;;22.98;56.31;100597.75;5063278;28;45378;-58
2021/07/27 04:57:56;;;;;;;;;13.33;12.33;;;;;22.98;56.48;100602.31;5081499;27;45397;-58
2021/07/27 05:00:26;;;;;;;;;15.00;15.00;;;;;22.98;56.12;100600.47;5080922;27;47126;-58
2021/07/27 05:02:51;;;;;;;;;13.67;13.33;;;;;22.98;55.81;100605.88;5054674;28;46206;-58
2021/07/27 05:05:17;;;;;;;;;17.33;15.33;;;;;22.99;55.57;100623.84;5081136;27;45453;-58
2021/07/27 05:07:46;;;;;;;;;17.00;15.00;;;;;22.98;56.40;100619.41;5063265;28;45517;-58
2021/07/27 05:10:13;;;;;;;;;14.33;14.33;;;;;22.98;56.05;100616.69;5062947;28;47113;-60
2021/07/27 05:12:38;;;;;;;;;16.33;16.33;;;;;22.99;55.95;100617.56;5080814;27;45331;-58
2021/07/27 05:15:05;;;;;;;;;16.67;16.67;;;;;23.00;56.02;100608.50;5081481;27;45459;-58
2021/07/27 05:17:31;;;;;;;;;13.33;13.33;;;;;22.99;55.87;100598.63;5081618;27;45327;-58
2021/07/27 05:19:57;;;;;;;;;12.33;12.33;;;;;22.99;55.98;100607.59;5080620;27;48160;-58
2021/07/27 05:22:25;;;;;;;;;11.67;11.67;;;;;22.99;55.85;100604.03;5081285;28;45863;-58
2021/07/27 05:24:55;;;;;;;;;14.00;12.67;;;;;22.98;55.74;100619.41;5080768;27;45384;-58
2021/07/27 05:27:22;;;;;;;;;15.00;14.00;;;;;22.98;55.61;100630.22;5063400;28;45616;-58
2021/07/27 05:29:48;;;;;;;;;10.67;10.67;;;;;22.98;55.95;100632.94;5045907;28;47606;-58
2021/07/27 05:32:14;;;;;;;;;16.67;14.00;;;;;22.99;55.76;100628.38;5061755;28;45545;-59
2021/07/27 05:34:39;;;;;;;;;16.00;14.67;;;;;22.99;55.68;100631.09;5058884;28;45544;-59
2021/07/27 05:37:05;;;;;;;;;19.00;16.00;;;;;22.99;55.78;100620.28;5073488;27;45518;-58
2021/07/27 05:39:30;;;;;;;;;19.00;17.33;;;;;22.99;55.52;100631.09;5080336;27;47187;-59
2021/07/27 05:41:56;;;;;;;;;15.00;13.67;;;;;22.99;55.65;100628.38;5062371;28;45372;-59
2021/07/27 05:44:24;;;;;;;;;16.50;16.00;;;;;23.00;55.59;100635.56;5080650;27;45372;-59
2021/07/27 05:46:53;;;;;;;;;18.33;18.33;;;;;23.00;55.74;100638.25;5075272;28;45607;-59
2021/07/27 05:49:20;;;;;;;;;17.00;17.00;;;;;23.01;55.85;100643.56;5058577;28;47228;-59
2021/07/27 05:51:46;;;;;;;;;15.33;14.00;;;;;23.02;55.72;100642.56;5042157;28;45543;-59
2021/07/27 05:54:12;;;;;;;;;16.00;14.00;;;;;23.04;55.63;100647.88;5080241;27;45610;-58
2021/07/27 05:56:37;;;;;;;;;16.00;15.67;;;;;23.03;55.60;100647.00;5080515;27;45422;-59
2021/07/27 05:59:03;;;;;;;;;17.00;15.00;;;;;23.03;55.70;100652.44;5080005;27;47331;-58
2021/07/27 06:01:28;;;;;;;;;14.00;13.33;;;;;23.02;55.08;100660.66;5071444;27;45412;-58
2021/07/27 06:03:54;;;;;;;;;16.00;14.33;;;;;22.99;55.28;100669.84;5080250;27;45316;-59
2021/07/27 06:06:20;;;;;;;;;16.25;15.00;;;;;22.96;54.77;100661.97;5080538;27;45482;-59
2021/07/27 06:08:45;;;;;;;;;15.00;15.00;;;;;22.95;55.25;100667.50;5041478;28;47538;-58
2021/07/27 06:11:12;;;;;;;;;14.75;14.00;;;;;22.90;55.05;100662.44;5074093;27;45862;-59
2021/07/27 06:13:37;;;;;;;;;16.67;15.67;;;;;22.87;54.69;100668.94;5080337;27;45370;-59
2021/07/27 06:16:04;;;;;;;;;14.33;13.33;;;;;22.85;55.05;100667.31;5059464;28;45522;-58
2021/07/27 06:18:30;;;;;;;;;18.33;15.67;;;;;22.83;54.93;100680.09;5079886;27;47518;-59
2021/07/27 06:20:56;;;;;;;;;17.00;15.67;;;;;22.85;54.68;100686.25;5079638;27;45988;-58
2021/07/27 06:23:21;;;;;;;;;16.25;16.00;;;;;22.85;54.88;100676.28;5079265;27;45330;-58
2021/07/27 06:25:47;;;;;;;;;14.00;13.50;;;;;22.87;54.79;100676.19;5080631;27;45365;-58
2021/07/27 06:28:12;;;;;;;;;17.75;16.50;;;;;22.85;54.55;100673.56;5079691;27;47333;-58
2021/07/27 06:30:38;;;;;;;;;15.33;15.33;;;;;22.84;55.05;100668.28;5079612;27;45334;-59
2021/07/27 06:33:03;;;;;;;;;16.33;13.67;;;;;22.84;54.94;100676.41;5079866;27;45259;-58
2021/07/27 06:35:28;;;;;;;;;13.00;13.00;;;;;22.80;54.73;100675.72;5061933;28;45291;-58
2021/07/27 06:37:54;;;;;;;;;20.67;17.00;;;;;22.77;55.21;100673.25;5074094;27;46105;-57
2021/07/27 06:40:20;;;;;;;;;13.50;13.50;;;;;22.77;54.89;100678.66;5072721;27;45435;-58
2021/07/27 06:42:45;;;;;;;;;14.33;12.67;;;;;22.76;54.57;100676.09;5079178;27;45306;-57
2021/07/27 06:45:11;;;;;;;;;14.33;14.00;;;;;22.78;54.62;100684.94;5074757;27;45653;-57
2021/07/27 06:47:37;;;;;;;;;15.67;14.00;;;;;22.76;54.62;100692.31;5059893;28;47775;-57
2021/07/27 06:50:03;;;;;;;;;13.00;13.00;;;;;22.75;54.78;100694.16;5079591;28;45644;-58
2021/07/27 06:52:28;;;;;;;;;15.50;15.00;;;;;22.74;55.19;100695.13;5079611;27;45340;-59
2021/07/27 06:54:54;;;;;;;;;15.75;14.00;;;;;22.73;55.09;100693.38;5081008;27;45467;-58
2021/07/27 06:57:19;;;;;;;;;12.50;12.50;;;;;22.74;54.76;100686.13;5061152;28;45377;-58
2021/07/27 06:59:45;;;;;;;;;13.75;12.50;;;;;22.79;55.25;100697.50;5079862;27;45346;-58
2021/07/27 07:02:10;;;;;;;;;17.50;15.50;;;;;22.79;54.63;100698.34;5070382;27;45667;-59
2021/07/27 07:04:36;;;;;;;;;16.00;15.00;;;;;22.81;54.89;100701.81;5079480;28;45680;-59
2021/07/27 07:07:01;;;;;;;;;13.33;12.67;;;;;22.80;54.81;100697.38;5061122;28;47069;-59
2021/07/27 07:09:27;;;;;;;;;14.00;14.00;;;;;22.82;54.70;100700.84;5061291;28;45448;-59
2021/07/27 07:11:52;;;;;;;;;14.25;14.25;;;;;22.83;55.02;100696.31;5079473;27;45398;-59
2021/07/27 07:14:18;;;;;;;;;16.25;15.50;;;;;22.85;54.71;100702.47;5079906;27;45659;-59
2021/07/27 07:16:43;;;;;;;;;15.33;13.67;;;;;22.86;54.40;100704.19;5061159;28;45746;-59
2021/07/27 07:19:09;;;;;;;;;17.00;16.25;;;;;22.85;54.26;100703.34;5061229;28;45386;-60
2021/07/27 07:21:34;;;;;;;;;15.00;12.33;;;;;22.85;54.46;100708.75;5060943;28;45406;-60
2021/07/27 07:24:00;;;;;;;;;15.00;13.50;;;;;22.88;54.53;100708.56;5079662;27;45634;-59
2021/07/27 07:26:25;;;;;;;;;15.25;15.25;;;;;22.91;54.22;100704.75;5079277;27;46646;-59
2021/07/27 07:28:51;;;;;;;;;13.00;13.00;;;;;22.92;54.65;100701.06;5079172;27;45363;-59
2021/07/27 07:31:16;;;;;;;;;12.00;12.00;;;;;22.96;54.01;100702.56;5079377;27;45362;-59
2021/07/27 07:33:43;;;;;;;;;16.75;16.75;;;;;23.02;54.13;100707.53;5061655;28;45477;-58
2021/07/27 07:36:13;;;;;;;;;13.33;13.00;;;;;23.10;54.20;100706.94;5078967;27;47323;-58
2021/07/27 07:38:42;;;;;;;;;15.00;14.00;;;;;23.17;54.08;100705.53;5060650;28;45840;-58
2021/07/27 07:41:09;;;;;;;;;14.00;14.00;;;;;23.20;53.77;100710.72;5077461;27;45224;-58
2021/07/27 07:43:35;;;;;;;;;20.50;20.50;;;;;23.23;53.98;100701.50;5079108;27;45456;-57
2021/07/27 07:46:01;;;;;;;;;18.00;16.75;;;;;23.29;53.66;100706.47;5074096;27;47060;-58
2021/07/27 07:48:26;;;;;;;;;17.50;16.00;;;;;23.34;53.69;100707.84;5077985;27;45291;-58
2021/07/27 07:50:52;;;;;;;;;15.00;14.00;;;;;23.37;53.21;100695.91;5060836;28;45658;-58
2021/07/27 07:53:18;;;;;;;;;14.25;13.00;;;;;23.36;52.99;100697.75;5061413;28;45457;-58
2021/07/27 07:55:43;;;;;;;;;11.00;10.50;;;;;23.36;53.23;100705.00;5079095;27;46204;-58
2021/07/27 07:58:09;;;;;;;;;14.33;13.67;;;;;23.37;53.26;100706.72;5079316;28;45238;-59
2021/07/27 08:00:34;;;;;;;;;12.67;12.67;;;;;23.37;52.84;100707.59;5077101;27;45298;-59
2021/07/27 08:03:03;;;;;;;;;15.75;15.00;;;;;23.37;52.96;100720.28;5053901;28;45504;-58
2021/07/27 08:05:29;;;;;;;;;16.50;12.75;;;;;23.35;52.89;100714.09;5077970;28;45345;-57
2021/07/27 08:07:55;;;;;;;;;9.33;9.33;;;;;23.35;53.28;100722.25;5078734;27;45485;-58
2021/07/27 08:10:21;;;;;;;;;13.67;12.67;;;;;23.35;53.09;100720.38;5077426;27;45373;-59
2021/07/27 08:12:47;;;;;;;;;13.67;12.67;;;;;23.38;53.10;100711.19;5078566;27;45390;-58
2021/07/27 08:15:14;;;;;;;;;9.67;9.67;;;;;23.39;52.84;100712.94;5060425;28;48362;-58
2021/07/27 08:17:40;;;;;;;;;15.25;15.25;;;;;23.39;52.79;100716.50;5078498;27;45863;-59
2021/07/27 08:20:06;;;;;;;;;12.67;12.67;;;;;23.38;52.82;100709.34;5078532;28;45393;-59
2021/07/27 08:22:32;;;;;;;;;13.00;13.00;;;;;23.39;52.98;100715.63;5060916;27;45481;-59
2021/07/27 08:24:57;;;;;;;;;15.67;15.67;;;;;23.39;52.50;100715.63;5056480;28;47502;-59
2021/07/27 08:27:23;;;;;;;;;14.67;14.67;;;;;23.38;52.99;100724.75;5072958;27;45294;-59
2021/07/27 08:29:48;;;;;;;;;15.67;13.67;;;;;23.37;52.97;100717.56;5048385;28;45519;-60
2021/07/27 08:32:14;;;;;;;;;11.67;10.33;;;;;23.37;53.02;100712.16;5056867;28;45623;-59
2021/07/27 08:34:44;;;;;;;;;13.33;12.00;;;;;23.38;53.05;100708.50;5078246;27;47257;-59
2021/07/27 08:37:10;;;;;;;;;16.75;15.00;;;;;23.39;53.04;100718.34;5044613;27;45324;-59
2021/07/27 08:39:36;;;;;;;;;16.00;14.33;;;;;23.37;53.08;100713.00;5067049;27;45401;-59
2021/07/27 08:42:03;;;;;;;;;17.00;14.33;;;;;23.36;53.10;100705.88;5078299;27;45297;-59
2021/07/27 08:44:34;;;;;;;;;11.33;10.67;;;;;23.37;53.05;100706.72;5059307;28;47001;-59
2021/07/27 08:47:01;;;;;;;;;12.67;12.67;;;;;23.37;53.42;100704.03;5076755;28;45501;-59
2021/07/27 08:49:29;;;;;;;;;15.00;13.50;;;;;23.34;52.92;100696.13;5065048;27;45306;-59
2021/07/27 08:51:54;;;;;;;;;16.67;16.00;;;;;23.32;53.24;100690.84;5078375;28;45569;-59
2021/07/27 08:54:20;;;;;;;;;15.00;13.33;;;;;23.31;53.32;100702.66;5078271;28;47751;-59
2021/07/27 08:56:50;;;;;;;;;14.33;13.67;;;;;23.31;53.10;100713.47;5057944;27;45390;-59
2021/07/27 08:59:17;;;;;;;;;19.00;17.33;;;;;23.29;53.51;100706.47;5060146;28;45742;-59
2021/07/27 09:01:43;;;;;;;;;13.33;11.67;;;;;23.28;53.56;100705.59;5069884;27;45368;-59
2021/07/27 09:04:09;;;;;;;;;14.67;14.67;;;;;23.29;53.61;100701.03;5078502;27;47358;-59
2021/07/27 09:06:35;;;;;;;;;15.33;14.00;;;;;23.30;53.63;100710.91;5061276;27;45967;-59
2021/07/27 09:09:10;;;;;;;;;16.67;15.67;;;;;23.31;54.19;100707.22;5064860;28;45422;-59
2021/07/27 09:11:47;;;;;;;;;17.67;17.67;;;;;23.35;54.23;100708.69;5064140;27;45591;-59
2021/07/27 09:14:15;;;;;;;;;15.67;15.00;;;;;23.37;53.76;100715.72;5081648;27;45520;-59
2021/07/27 09:16:48;;;;;;;;;15.00;14.00;;;;;23.40;53.95;100720.94;5080981;27;45315;-59
2021/07/27 09:19:15;;;;;;;;;16.33;14.33;;;;;23.43;53.72;100720.69;5081589;27;45705;-58
2021/07/27 09:21:42;;;;;;;;;11.75;10.50;;;;;23.47;53.87;100722.19;5063341;28;45340;-59
2021/07/27 09:24:22;;;;;;;;;16.75;16.50;;;;;23.46;54.11;100720.44;5063093;27;47728;-58
2021/07/27 09:26:56;;;;;;;;;12.00;12.00;;;;;23.46;54.13;100716.88;5081028;28;45386;-58
2021/07/27 09:29:23;;;;;;;;;16.00;15.50;;;;;23.47;54.26;100719.47;5081270;27;45400;-58
2021/07/27 09:31:52;;;;;;;;;14.25;14.25;;;;;23.54;54.52;100724.44;5081058;27;45377;-59
2021/07/27 09:34:17;;;;;;;;;15.75;14.75;;;;;23.58;54.36;100707.88;5062644;27;47974;-59
2021/07/27 09:36:43;;;;;;;;;14.67;14.67;;;;;23.62;54.42;100719.31;5062550;28;45575;-60
2021/07/27 09:39:09;;;;;;;;;15.33;15.33;;;;;23.64;54.32;100718.25;5069348;27;45716;-60
2021/07/27 09:41:34;;;;;;;;;20.67;18.67;;;;;23.65;54.24;100714.56;5081551;27;45321;-60
2021/07/27 09:44:00;;;;;;;;;17.00;15.50;;;;;23.69;54.48;100715.19;5080984;27;47140;-60
2021/07/27 09:46:27;;;;;;;;;17.50;16.75;;;;;23.71;54.55;100715.91;5058392;28;45598;-58
2021/07/27 09:48:53;;;;;;;;;18.50;17.00;;;;;23.70;54.64;100717.75;5061592;27;45376;-59
2021/07/27 09:51:19;;;;;;;;;14.67;14.67;;;;;23.70;54.45;100717.75;5046496;28;45341;-59
2021/07/27 09:53:46;;;;;;;;;15.75;15.75;;;;;23.69;54.56;100718.75;5062091;27;47427;-58
2021/07/27 09:56:12;;;;;;;;;17.00;17.00;;;;;23.69;54.71;100724.16;5080664;27;45378;-57
2021/07/27 09:58:38;;;;;;;;;17.00;16.25;;;;;23.73;54.38;100720.22;5079948;27;45625;-58
2021/07/27 10:01:20;;;;;;;;;14.75;14.50;;;;;23.77;54.27;100721.75;5074773;27;45449;-59
2021/07/27 10:03:58;;;;;;;;;16.00;16.00;;;;;23.81;54.53;100725.06;5079381;27;47447;-59
2021/07/27 10:06:26;;;;;;;;;12.33;12.00;;;;;23.81;54.02;100730.50;5062031;27;45623;-58
2021/07/27 10:08:59;;;;;;;;;16.25;16.25;;;;;23.80;54.03;100739.59;5080233;28;45508;-58
2021/07/27 10:11:35;;;;;;;;;15.00;15.00;;;;;23.76;54.38;100730.88;5080730;27;45469;-59
2021/07/27 10:14:07;;;;;;;;;15.00;12.75;;;;;23.76;54.85;100733.56;5058721;28;48488;-59
2021/07/27 10:16:32;;;;;;;;;15.25;15.25;;;;;23.76;54.52;100736.28;5078794;27;45864;-59
2021/07/27 10:18:58;;;;;;;;;13.33;13.33;;;;;23.73;54.50;100739.19;5079717;27;45451;-57
2021/07/27 10:21:26;;;;;;;;;15.33;14.33;;;;;23.69;54.82;100742.28;5081046;27;45497;-57
2021/07/27 10:24:12;;;;;;;;;13.75;12.75;;;;;23.66;54.38;100732.53;5080783;28;47210;-58
2021/07/27 10:26:38;;;;;;;;;16.00;13.75;;;;;23.65;54.94;100743.50;5079583;27;45877;-59
2021/07/27 10:29:04;;;;;;;;;22.00;18.25;;;;;23.63;55.08;100738.19;5061751;28;45295;-57
2021/07/27 10:31:31;;;;;;;;;16.00;16.00;;;;;23.63;55.34;100732.78;5080043;27;45715;-58
2021/07/27 10:33:57;;;;;;;;;16.75;16.75;;;;;23.64;55.36;100739.91;5079335;27;47711;-58
2021/07/27 10:36:27;;;;;;;;;19.00;16.00;;;;;23.64;55.32;100730.94;5079849;27;45761;-57
2021/07/27 10:38:52;;;;;;;;;17.33;14.67;;;;;23.62;55.18;100746.41;5066628;27;45496;-58
2021/07/27 10:41:19;;;;;;;;;14.67;12.33;;;;;23.59;55.40;100746.66;5080150;27;45413;-58
2021/07/27 10:43:45;;;;;;;;;15.33;14.33;;;;;23.56;55.43;100741.44;5079500;27;47322;-58
2021/07/27 10:46:11;;;;;;;;;15.67;15.33;;;;;23.55;55.47;100748.69;5075166;27;45327;-58
2021/07/27 10:48:41;;;;;;;;;13.00;13.00;;;;;23.54;55.31;100741.56;5078423;27;45385;-59
2021/07/27 10:51:08;;;;;;;;;13.00;13.00;;;;;23.49;55.52;100728.34;5080110;27;45527;-59
2021/07/27 10:53:35;;;;;;;;;14.50;14.50;;;;;23.51;55.73;100738.22;5079390;27;47524;-58
2021/07/27 10:56:05;;;;;;;;;13.00;13.00;;;;;23.53;55.60;100733.56;5079540;27;45299;-58
2021/07/27 10:58:31;;;;;;;;;14.00;12.67;;;;;23.55;55.60;100737.00;5079281;27;45722;-58
2021/07/27 11:01:11;;;;;;;;;17.33;16.00;;;;;23.57;55.63;100727.78;5074288;27;45643;-59
2021/07/27 11:03:41;;;;;;;;;16.50;16.50;;;;;23.60;55.66;100719.44;5077587;27;46981;-59
2021/07/27 11:06:06;;;;;;;;;16.25;16.25;;;;;23.61;55.60;100721.16;5079707;27;45617;-59
2021/07/27 11:08:32;;;;;;;;;14.00;13.75;;;;;23.65;55.62;100716.41;5079309;27;45448;-59
2021/07/27 11:11:12;;;;;;;;;11.33;11.33;;;;;23.68;55.44;100719.72;5079568;27;45609;-59
2021/07/27 11:13:39;;;;;;;;;13.00;13.00;;;;;23.69;55.63;100721.47;5060649;28;46694;-59
2021/07/27 11:16:05;;;;;;;;;15.50;14.00;;;;;23.71;55.79;100715.91;5078967;27;45394;-59
2021/07/27 11:18:31;;;;;;;;;15.75;15.25;;;;;23.72;55.51;100717.63;5079642;27;45664;-59
2021/07/27 11:20:58;;;;;;;;;13.00;13.00;;;;;23.71;55.36;100714.06;5058942;27;45296;-59
2021/07/27 11:23:30;;;;;;;;;14.00;13.00;;;;;23.70;55.13;100712.34;5079035;28;47185;-59
2021/07/27 11:25:57;;;;;;;;;11.00;10.67;;;;;23.72;55.12;100704.94;5079235;27;45837;-59
2021/07/27 11:28:36;;;;;;;;;14.00;14.00;;;;;23.76;55.25;100708.31;5079163;27;45346;-59
2021/07/27 11:31:03;;;;;;;;;13.00;13.00;;;;;23.80;55.21;100719.78;5078427;27;45393;-59
2021/07/27 11:33:29;;;;;;;;;13.50;13.50;;;;;23.80;55.58;100717.06;5079206;28;45417;-58
2021/07/27 11:35:59;;;;;;;;;16.00;15.00;;;;;23.81;55.10;100716.09;5079104;27;45497;-59
2021/07/27 11:38:29;;;;;;;;;18.25;15.00;;;;;23.83;55.47;100723.09;5079104;27;45433;-59